Time;durP1;ratioP1;P1;durP2;ratioP2;P2;SDS_P1;SDS_P2;PMS_P1;PMS_P2;Temp;Humidity;BMP_temperature;BMP_pressure;BME280_temperature;BME280_humidity;BME280_pressure;Samples;Min_cycle;Max_cycle;Signal;HPM_P1;HPM_P2
2022/12/20 00:00:55;;;;;;;21.73;5.57;;;;;;;;;;1725590;81;21670;-49
2022/12/20 00:03:22;;;;;;;13.93;5.77;;;;;;;;;;1764335;80;21052;-48
2022/12/20 00:05:48;;;;;;;10.43;5.03;;;;;;;;;;1767729;80;21376;-47
2022/12/20 00:08:14;;;;;;;14.33;4.33;;;;;;;;;;1767100;79;21816;-51
2022/12/20 00:10:42;;;;;;;11.67;5.00;;;;;;;;;;1764619;80;21044;-47
2022/12/20 00:13:08;;;;;;;9.37;4.10;;;;;;;;;;1765997;80;21076;-48
2022/12/20 00:15:34;;;;;;;7.97;2.50;;;;;;;;;;1764815;80;21033;-48
2022/12/20 00:18:00;;;;;;;10.50;3.83;;;;;;;;;;1764603;80;21450;-52
2022/12/20 00:20:28;;;;;;;8.13;3.23;;;;;;;;;;1765433;80;21891;-47
2022/12/20 00:22:54;;;;;;;12.80;4.17;;;;;;;;;;1762831;79;21060;-48
2022/12/20 00:25:20;;;;;;;11.10;3.70;;;;;;;;;;1766541;80;21028;-48
2022/12/20 00:27:47;;;;;;;11.87;4.40;;;;;;;;;;1767104;79;21130;-51
2022/12/20 00:30:14;;;;;;;9.20;4.10;;;;;;;;;;1768274;79;21132;-51
2022/12/20 00:32:40;;;;;;;8.90;3.90;;;;;;;;;;1771159;79;22424;-50
2022/12/20 00:35:07;;;;;;;6.47;2.43;;;;;;;;;;1767199;79;21029;-49
2022/12/20 00:37:33;;;;;;;13.07;4.53;;;;;;;;;;1732882;81;21036;-47
2022/12/20 00:40:00;;;;;;;12.80;3.90;;;;;;;;;;1767770;80;21092;-51
2022/12/20 00:42:26;;;;;;;9.30;3.23;;;;;;;;;;1763690;79;21061;-49
2022/12/20 00:44:52;;;;;;;11.20;5.13;;;;;;;;;;1767949;80;21843;-48
2022/12/20 00:47:18;;;;;;;11.87;4.73;;;;;;;;;;1762977;80;21450;-51
2022/12/20 00:49:44;;;;;;;11.70;4.80;;;;;;;;;;1765374;80;22242;-47
2022/12/20 00:52:12;;;;;;;12.30;5.43;;;;;;;;;;1762942;79;21135;-49
2022/12/20 00:54:39;;;;;;;7.90;3.27;;;;;;;;;;1767733;79;21486;-49
2022/12/20 00:57:06;;;;;;;10.60;4.97;;;;;;;;;;1770279;80;21807;-48
2022/12/20 00:59:33;;;;;;;11.43;5.30;;;;;;;;;;1766405;79;21037;-49
2022/12/20 01:02:01;;;;;;;16.03;5.63;;;;;;;;;;1720522;80;20974;-48
2022/12/20 01:04:27;;;;;;;16.43;6.00;;;;;;;;;;1763425;80;21126;-47
2022/12/20 01:06:53;;;;;;;12.43;4.90;;;;;;;;;;1765530;80;21088;-47
2022/12/20 01:09:19;;;;;;;10.47;3.43;;;;;;;;;;1761629;80;21820;-47
2022/12/20 01:11:46;;;;;;;16.00;4.97;;;;;;;;;;1763094;79;21076;-49
2022/12/20 01:14:14;;;;;;;16.53;4.80;;;;;;;;;;1767689;79;21060;-48
2022/12/20 01:16:43;;;;;;;13.13;5.13;;;;;;;;;;1734149;82;21412;-48
2022/12/20 01:19:11;;;;;;;8.63;3.73;;;;;;;;;;1743155;80;20969;-51
2022/12/20 01:21:43;;;;;;;11.40;4.77;;;;;;;;;;1770619;79;21800;-51
2022/12/20 01:24:05;;;;;;;12.37;5.00;;;;;;;;;;1766424;79;20981;-51
2022/12/20 01:26:31;;;;;;;15.00;4.77;;;;;;;;;;1750078;80;21054;-51
2022/12/20 01:28:58;;;;;;;11.30;4.07;;;;;;;;;;1751684;80;21636;-48
2022/12/20 01:31:24;;;;;;;11.03;4.23;;;;;;;;;;1750052;80;20978;-47
2022/12/20 01:33:52;;;;;;;9.73;4.17;;;;;;;;;;1770202;79;20954;-52
2022/12/20 01:36:21;;;;;;;19.37;5.03;;;;;;;;;;1767430;79;21588;-48
2022/12/20 01:38:47;;;;;;;14.67;4.97;;;;;;;;;;1768975;79;21024;-51
2022/12/20 01:41:15;;;;;;;10.83;2.57;;;;;;;;;;1770293;79;21532;-48
2022/12/20 01:43:53;;;;;;;12.37;3.97;;;;;;;;;;1770423;80;20972;-51
2022/12/20 01:46:21;;;;;;;10.03;3.37;;;;;;;;;;1765258;79;21998;-48
2022/12/20 01:48:59;;;;;;;9.63;3.13;;;;;;;;;;1766081;80;21528;-49
2022/12/20 01:51:25;;;;;;;11.00;3.30;;;;;;;;;;1733782;80;21331;-49
2022/12/20 01:53:55;;;;;;;16.33;4.10;;;;;;;;;;1738474;80;21036;-49
2022/12/20 01:56:22;;;;;;;12.17;4.23;;;;;;;;;;1719895;82;21090;-49
2022/12/20 01:58:48;;;;;;;13.13;2.90;;;;;;;;;;1738562;80;22383;-50
2022/12/20 02:01:15;;;;;;;12.43;3.37;;;;;;;;;;1736267;80;20998;-49
2022/12/20 02:03:41;;;;;;;7.63;3.30;;;;;;;;;;1742174;80;21532;-47
2022/12/20 02:06:15;;;;;;;16.27;3.97;;;;;;;;;;1743204;80;21031;-52
2022/12/20 02:08:42;;;;;;;11.80;2.83;;;;;;;;;;1769985;79;21193;-49
2022/12/20 02:11:18;;;;;;;10.83;3.57;;;;;;;;;;1771964;79;21455;-51
2022/12/20 02:13:51;;;;;;;11.20;3.50;;;;;;;;;;1770582;79;21510;-49
2022/12/20 02:16:24;;;;;;;4.70;2.30;;;;;;;;;;1772478;79;21111;-48
2022/12/20 02:19:11;;;;;;;10.87;3.63;;;;;;;;;;1773293;79;21565;-48
2022/12/20 02:21:53;;;;;;;7.77;3.13;;;;;;;;;;1771739;79;21384;-47
2022/12/20 02:24:35;;;;;;;22.63;4.43;;;;;;;;;;1771827;79;22684;-52
2022/12/20 02:27:18;;;;;;;17.13;3.83;;;;;;;;;;1740278;80;21075;-50
2022/12/20 02:30:15;;;;;;;20.13;4.27;;;;;;;;;;1769675;79;21103;-51
2022/12/20 02:32:52;;;;;;;17.87;4.17;;;;;;;;;;1770816;79;21059;-50
2022/12/20 02:35:23;;;;;;;7.37;2.70;;;;;;;;;;1772065;79;21044;-49
2022/12/20 02:37:54;;;;;;;14.67;3.37;;;;;;;;;;1746904;80;21934;-47
2022/12/20 02:40:23;;;;;;;16.67;3.97;;;;;;;;;;1769105;80;21045;-51
2022/12/20 02:42:52;;;;;;;11.53;4.57;;;;;;;;;;1767498;80;21532;-49
2022/12/20 02:45:20;;;;;;;12.00;3.73;;;;;;;;;;1771159;80;21526;-48
2022/12/20 02:47:53;;;;;;;13.53;4.70;;;;;;;;;;1770150;80;21052;-48
2022/12/20 02:50:27;;;;;;;19.42;4.15;;;;;;;;;;1771273;80;21828;-47
2022/12/20 02:52:53;;;;;;;20.03;4.87;;;;;;;;;;1771139;80;21478;-50
2022/12/20 02:55:22;;;;;;;11.60;4.27;;;;;;;;;;1773709;78;21124;-47
2022/12/20 02:58:01;;;;;;;12.13;4.83;;;;;;;;;;1778107;78;21032;-48
2022/12/20 03:00:30;;;;;;;11.47;4.17;;;;;;;;;;1782166;78;21529;-47
2022/12/20 03:05:43;;;;;;;11.37;3.70;;;;;;;;;;1736432;78;21164;-48
2022/12/20 03:08:10;;;;;;;9.40;2.40;;;;;;;;;;1780657;78;21020;-51
2022/12/20 03:10:36;;;;;;;10.33;3.07;;;;;;;;;;1779706;78;22468;-47
2022/12/20 03:13:03;;;;;;;9.70;3.37;;;;;;;;;;1775901;78;21114;-48
2022/12/20 03:15:30;;;;;;;12.53;2.60;;;;;;;;;;1752351;80;21826;-51
2022/12/20 03:17:57;;;;;;;7.90;2.63;;;;;;;;;;1780525;78;21047;-47
2022/12/20 03:20:23;;;;;;;7.57;2.47;;;;;;;;;;1778859;78;21498;-51
2022/12/20 03:22:50;;;;;;;5.60;2.20;;;;;;;;;;1780876;78;21044;-50
2022/12/20 03:25:16;;;;;;;5.50;2.70;;;;;;;;;;1777762;78;22086;-50
2022/12/20 03:27:42;;;;;;;12.77;2.40;;;;;;;;;;1776915;78;21809;-49
2022/12/20 03:30:09;;;;;;;6.93;2.50;;;;;;;;;;1758932;79;21071;-49
2022/12/20 03:32:36;;;;;;;12.60;4.53;;;;;;;;;;1762652;79;21375;-47
2022/12/20 03:35:04;;;;;;;21.13;4.13;;;;;;;;;;1784024;78;21374;-49
2022/12/20 03:37:32;;;;;;;16.47;3.27;;;;;;;;;;1782264;78;21032;-51
2022/12/20 03:39:59;;;;;;;17.20;3.33;;;;;;;;;;1778647;78;24009;-48
2022/12/20 03:42:25;;;;;;;12.60;3.70;;;;;;;;;;1776280;78;21631;-52
2022/12/20 03:44:52;;;;;;;7.60;2.23;;;;;;;;;;1777349;78;22170;-47
2022/12/20 03:47:18;;;;;;;6.27;2.00;;;;;;;;;;1780304;78;21039;-48
2022/12/20 03:49:45;;;;;;;5.03;1.90;;;;;;;;;;1779515;78;21086;-48
2022/12/20 03:52:12;;;;;;;8.60;2.80;;;;;;;;;;1782274;78;23635;-51
2022/12/20 03:54:38;;;;;;;5.60;1.77;;;;;;;;;;1733351;81;21602;-48
2022/12/20 03:57:15;;;;;;;4.13;1.53;;;;;;;;;;1763601;78;21186;-48
2022/12/20 03:59:42;;;;;;;5.30;1.63;;;;;;;;;;1735410;81;21013;-48
2022/12/20 04:02:09;;;;;;;5.20;2.10;;;;;;;;;;1735831;80;20978;-48
2022/12/20 04:04:36;;;;;;;2.60;1.23;;;;;;;;;;1736082;80;21803;-50
2022/12/20 04:07:02;;;;;;;8.13;2.70;;;;;;;;;;1765337;80;21512;-49
2022/12/20 04:09:29;;;;;;;5.70;2.07;;;;;;;;;;1766139;80;21479;-48
2022/12/20 04:11:57;;;;;;;4.87;1.83;;;;;;;;;;1768724;80;20976;-47
2022/12/20 04:14:23;;;;;;;8.13;2.17;;;;;;;;;;1771577;79;20978;-48
2022/12/20 04:16:50;;;;;;;3.70;1.80;;;;;;;;;;1765985;79;21784;-47
2022/12/20 04:19:18;;;;;;;4.70;1.70;;;;;;;;;;1768585;79;20989;-51
2022/12/20 04:21:45;;;;;;;3.67;1.50;;;;;;;;;;1735886;82;20965;-48
2022/12/20 04:24:12;;;;;;;4.63;2.00;;;;;;;;;;1769782;79;20947;-50
2022/12/20 04:26:49;;;;;;;4.00;1.73;;;;;;;;;;1752944;79;21048;-50
2022/12/20 04:29:15;;;;;;;4.17;2.13;;;;;;;;;;1768203;79;21871;-50
2022/12/20 04:31:41;;;;;;;3.93;1.50;;;;;;;;;;1769821;79;20983;-48
2022/12/20 04:34:08;;;;;;;4.13;1.80;;;;;;;;;;1742172;80;21387;-48
2022/12/20 04:36:34;;;;;;;3.00;1.83;;;;;;;;;;1738024;82;21017;-49
2022/12/20 04:39:02;;;;;;;6.47;1.47;;;;;;;;;;1770503;79;20962;-48
2022/12/20 04:41:30;;;;;;;4.27;1.53;;;;;;;;;;1733711;81;22843;-47
2022/12/20 04:43:58;;;;;;;4.33;1.43;;;;;;;;;;1761630;80;21068;-50
2022/12/20 04:46:26;;;;;;;4.70;1.60;;;;;;;;;;1763130;80;21009;-49
2022/12/20 06:16:19;;;;;;;3.83;1.53;;;;;;;;;;1866172;75;28845;-44
2022/12/20 06:18:46;;;;;;;3.30;1.00;;;;;;;;;;1869154;75;21166;-44
2022/12/20 06:21:12;;;;;;;4.13;1.50;;;;;;;;;;1875935;75;22137;-44
2022/12/20 06:23:39;;;;;;;3.23;1.50;;;;;;;;;;1872019;75;21537;-44
2022/12/20 06:26:08;;;;;;;2.73;1.23;;;;;;;;;;1867775;75;20998;-44
2022/12/20 06:28:41;;;;;;;5.20;1.50;;;;;;;;;;1871060;75;21492;-44
2022/12/20 06:31:04;;;;;;;6.50;1.20;;;;;;;;;;1872495;75;20989;-43
2022/12/20 06:33:35;;;;;;;4.93;1.90;;;;;;;;;;1875534;75;22044;-43
2022/12/20 06:36:03;;;;;;;4.57;1.17;;;;;;;;;;1871238;75;21037;-43
2022/12/20 06:38:29;;;;;;;4.20;1.63;;;;;;;;;;1869619;75;21052;-43
2022/12/20 06:40:56;;;;;;;3.73;1.10;;;;;;;;;;1873580;75;21021;-43
2022/12/20 06:43:22;;;;;;;5.00;2.07;;;;;;;;;;1867968;75;21432;-46
2022/12/20 06:45:48;;;;;;;5.20;1.90;;;;;;;;;;1876931;75;21801;-43
2022/12/20 06:48:14;;;;;;;6.83;1.53;;;;;;;;;;1868712;75;21326;-43
2022/12/20 06:50:42;;;;;;;4.07;1.77;;;;;;;;;;1870174;75;21856;-43
2022/12/20 06:53:10;;;;;;;3.80;1.57;;;;;;;;;;1873716;75;20954;-43
2022/12/20 06:55:38;;;;;;;3.63;2.10;;;;;;;;;;1874410;75;21100;-43
2022/12/20 06:58:04;;;;;;;5.87;2.23;;;;;;;;;;1873703;75;22838;-43
2022/12/20 07:00:31;;;;;;;4.07;1.60;;;;;;;;;;1870799;75;21791;-43
2022/12/20 07:02:57;;;;;;;2.53;1.00;;;;;;;;;;1869708;75;21266;-43
2022/12/20 07:05:24;;;;;;;5.03;1.30;;;;;;;;;;1860974;75;21036;-43
2022/12/20 07:07:50;;;;;;;3.30;1.43;;;;;;;;;;1847207;75;21011;-43
2022/12/20 07:10:16;;;;;;;3.53;1.00;;;;;;;;;;1848939;75;21800;-43
2022/12/20 07:12:42;;;;;;;3.70;1.10;;;;;;;;;;1850329;75;21020;-43
2022/12/20 07:15:09;;;;;;;2.47;1.00;;;;;;;;;;1846570;75;21024;-43
2022/12/20 07:17:36;;;;;;;5.83;1.23;;;;;;;;;;1848354;75;21025;-43
2022/12/20 07:20:02;;;;;;;1.97;1.03;;;;;;;;;;1852613;75;21008;-43
2022/12/20 07:22:28;;;;;;;4.13;1.90;;;;;;;;;;1844629;75;23278;-43
2022/12/20 07:24:54;;;;;;;9.33;3.07;;;;;;;;;;1849183;75;21675;-43
2022/12/20 07:27:21;;;;;;;4.47;1.33;;;;;;;;;;1844990;75;21051;-43
2022/12/20 07:29:47;;;;;;;4.07;1.40;;;;;;;;;;1845672;75;21135;-43
2022/12/20 07:32:13;;;;;;;2.70;1.10;;;;;;;;;;1845071;75;21085;-43
2022/12/20 07:34:40;;;;;;;3.30;0.90;;;;;;;;;;1849369;75;21927;-43
2022/12/20 07:37:07;;;;;;;2.80;1.17;;;;;;;;;;1847387;75;21021;-43
2022/12/20 07:39:33;;;;;;;3.93;1.00;;;;;;;;;;1849733;75;20996;-43
2022/12/20 07:41:59;;;;;;;2.47;1.00;;;;;;;;;;1846921;75;21528;-43
2022/12/20 07:44:26;;;;;;;3.47;1.20;;;;;;;;;;1847385;75;21046;-43
2022/12/20 07:46:52;;;;;;;7.20;2.10;;;;;;;;;;1840833;75;21883;-43
2022/12/20 07:49:18;;;;;;;9.53;1.57;;;;;;;;;;1847568;75;21040;-43
2022/12/20 07:51:49;;;;;;;2.60;1.30;;;;;;;;;;1851536;75;21017;-43
2022/12/20 07:54:18;;;;;;;2.37;1.03;;;;;;;;;;1847220;75;21032;-43
2022/12/20 07:56:46;;;;;;;2.93;1.00;;;;;;;;;;1843523;75;21485;-44
2022/12/20 07:59:13;;;;;;;2.60;1.43;;;;;;;;;;1850355;75;21770;-44
2022/12/20 08:01:40;;;;;;;3.13;1.10;;;;;;;;;;1850468;75;21027;-43
2022/12/20 08:04:09;;;;;;;4.07;1.20;;;;;;;;;;1848476;75;21581;-43
2022/12/20 08:06:36;;;;;;;2.47;1.30;;;;;;;;;;1848445;75;20968;-43
2022/12/20 08:09:03;;;;;;;4.17;1.67;;;;;;;;;;1853568;75;21004;-43
2022/12/20 08:11:30;;;;;;;2.57;1.30;;;;;;;;;;1852985;75;22571;-43
2022/12/20 08:13:56;;;;;;;7.07;1.60;;;;;;;;;;1819171;75;21052;-44
2022/12/20 08:16:22;;;;;;;3.63;1.47;;;;;;;;;;1847889;75;22207;-43
2022/12/20 08:18:48;;;;;;;7.10;3.07;;;;;;;;;;1777794;78;21079;-44
2022/12/20 08:21:15;;;;;;;3.23;1.53;;;;;;;;;;1815162;77;21122;-43
2022/12/20 08:23:41;;;;;;;2.83;1.50;;;;;;;;;;1814456;77;21835;-43
2022/12/20 08:26:07;;;;;;;4.23;1.43;;;;;;;;;;1784375;78;21024;-44
2022/12/20 08:28:33;;;;;;;3.37;1.43;;;;;;;;;;1786069;78;21599;-44
2022/12/20 08:31:03;;;;;;;5.13;1.47;;;;;;;;;;1788983;78;21122;-44
2022/12/20 08:33:31;;;;;;;4.33;1.47;;;;;;;;;;1804086;77;21042;-43
2022/12/20 08:35:58;;;;;;;4.03;1.60;;;;;;;;;;1776259;78;23324;-43
2022/12/20 08:38:27;;;;;;;3.13;1.10;;;;;;;;;;1809934;77;21043;-44
2022/12/20 08:40:53;;;;;;;5.57;2.20;;;;;;;;;;1788165;78;21154;-44
2022/12/20 08:43:19;;;;;;;2.23;1.27;;;;;;;;;;1783364;78;21322;-44
2022/12/20 08:45:53;;;;;;;3.93;1.20;;;;;;;;;;1787001;78;21056;-44
2022/12/20 08:48:19;;;;;;;8.57;3.17;;;;;;;;;;1786153;78;21720;-44
2022/12/20 08:50:45;;;;;;;4.37;1.37;;;;;;;;;;1786174;78;21558;-43
2022/12/20 08:53:11;;;;;;;2.60;1.00;;;;;;;;;;1781396;78;21033;-44
2022/12/20 08:55:37;;;;;;;3.43;1.30;;;;;;;;;;1787476;78;21255;-44
2022/12/20 08:58:03;;;;;;;5.07;1.30;;;;;;;;;;1788680;78;21014;-43
2022/12/20 09:00:30;;;;;;;1.20;0.60;;;;;;;;;;1784418;78;21955;-44
2022/12/20 09:02:56;;;;;;;3.50;0.87;;;;;;;;;;1786117;78;21033;-44
2022/12/20 09:05:23;;;;;;;2.77;1.00;;;;;;;;;;1789570;78;21045;-44
2022/12/20 09:07:49;;;;;;;2.80;0.90;;;;;;;;;;1784174;78;21525;-44
2022/12/20 09:10:15;;;;;;;1.73;0.87;;;;;;;;;;1789949;78;21100;-44
2022/12/20 09:12:41;;;;;;;7.03;1.03;;;;;;;;;;1789029;78;21841;-44
2022/12/20 09:15:09;;;;;;;2.27;0.80;;;;;;;;;;1787314;78;21052;-44
2022/12/20 09:17:35;;;;;;;3.10;0.90;;;;;;;;;;1783014;79;21026;-44
2022/12/20 09:20:02;;;;;;;4.07;1.23;;;;;;;;;;1783847;79;21052;-45
2022/12/20 09:22:29;;;;;;;2.30;0.93;;;;;;;;;;1783378;79;21037;-44
2022/12/20 09:24:55;;;;;;;1.40;1.00;;;;;;;;;;1785110;78;21940;-44
2022/12/20 09:27:21;;;;;;;2.27;0.87;;;;;;;;;;1778029;79;21307;-44
2022/12/20 09:29:47;;;;;;;1.67;1.00;;;;;;;;;;1788081;78;21144;-47
2022/12/20 09:32:15;;;;;;;3.43;1.20;;;;;;;;;;1759475;79;21066;-44
2022/12/20 09:34:41;;;;;;;2.67;1.27;;;;;;;;;;1786799;79;21569;-45
2022/12/20 09:37:08;;;;;;;3.43;1.03;;;;;;;;;;1788327;79;21832;-46
2022/12/20 09:39:34;;;;;;;5.33;1.13;;;;;;;;;;1781445;78;21025;-45
2022/12/20 09:42:00;;;;;;;8.13;1.00;;;;;;;;;;1782634;78;21018;-45
2022/12/20 09:44:29;;;;;;;4.23;1.10;;;;;;;;;;1733907;79;21285;-45
2022/12/20 09:46:58;;;;;;;3.97;1.57;;;;;;;;;;1780822;79;21085;-45
2022/12/20 09:49:28;;;;;;;6.43;1.20;;;;;;;;;;1785051;79;23178;-45
2022/12/20 09:52:16;;;;;;;2.73;1.00;;;;;;;;;;1781450;78;21195;-45
2022/12/20 09:54:52;;;;;;;3.17;1.03;;;;;;;;;;1786729;78;21104;-45
2022/12/20 09:57:31;;;;;;;5.87;2.00;;;;;;;;;;1781965;79;21522;-45
2022/12/20 09:59:58;;;;;;;7.93;1.80;;;;;;;;;;1781220;78;20986;-45
2022/12/20 10:02:24;;;;;;;4.33;1.80;;;;;;;;;;1788213;79;21842;-46
2022/12/20 10:04:52;;;;;;;5.43;2.93;;;;;;;;;;1780324;78;21104;-45
2022/12/20 10:07:38;;;;;;;7.27;3.37;;;;;;;;;;1784273;78;21041;-46
2022/12/20 10:10:25;;;;;;;4.13;1.70;;;;;;;;;;1779322;79;21473;-45
2022/12/20 10:12:59;;;;;;;4.23;1.93;;;;;;;;;;1781996;78;21094;-45
2022/12/20 10:15:44;;;;;;;6.90;1.37;;;;;;;;;;1780717;79;21939;-45
2022/12/20 10:18:29;;;;;;;;;;;;;;;;;;1751147;79;21521;-45
2022/12/20 10:21:20;;;;;;;3.60;1.25;;;;;;;;;;1748929;79;20358;-45
2022/12/20 10:23:59;;;;;;;5.37;1.90;;;;;;;;;;1755051;79;21076;-45
2022/12/20 10:26:26;;;;;;;3.87;1.40;;;;;;;;;;1782536;78;21060;-45
2022/12/20 10:28:52;;;;;;;7.53;1.87;;;;;;;;;;1782061;78;21833;-46
2022/12/20 10:31:18;;;;;;;4.73;1.63;;;;;;;;;;1746283;80;21043;-46
2022/12/20 10:33:45;;;;;;;5.70;1.70;;;;;;;;;;1749525;80;21036;-45
2022/12/20 10:36:26;;;;;;;4.90;1.83;;;;;;;;;;1746587;80;21060;-45
2022/12/20 10:38:54;;;;;;;5.70;1.63;;;;;;;;;;1747702;80;21592;-45
2022/12/20 10:41:26;;;;;;;3.83;1.57;;;;;;;;;;1749428;80;21824;-46
2022/12/20 10:44:07;;;;;;;3.03;1.30;;;;;;;;;;1755042;80;21044;-46
2022/12/20 10:46:36;;;;;;;7.47;1.70;;;;;;;;;;1725701;81;20982;-45
2022/12/20 10:49:32;;;;;;;4.20;1.97;;;;;;;;;;1782874;78;21013;-46
2022/12/20 10:52:05;;;;;;;6.33;3.17;;;;;;;;;;1738717;79;21073;-45
2022/12/20 10:54:36;;;;;;;5.87;2.37;;;;;;;;;;1776445;78;22445;-46
2022/12/20 10:57:17;;;;;;;9.97;3.43;;;;;;;;;;1778908;78;21348;-45
2022/12/20 10:59:46;;;;;;;9.13;4.37;;;;;;;;;;1758772;78;21000;-46
2022/12/20 11:02:35;;;;;;;9.63;4.37;;;;;;;;;;1778785;78;21536;-46
2022/12/20 11:05:14;;;;;;;11.23;5.87;;;;;;;;;;1773560;78;21422;-46
2022/12/20 11:07:57;;;;;;;16.63;9.03;;;;;;;;;;1781487;78;21767;-45
2022/12/20 11:10:25;;;;;;;10.97;5.40;;;;;;;;;;1778577;78;21602;-46
2022/12/20 11:12:53;;;;;;;13.03;5.77;;;;;;;;;;1777158;78;21490;-46
2022/12/20 11:15:22;;;;;;;6.87;3.57;;;;;;;;;;1775669;78;21439;-45
2022/12/20 11:17:50;;;;;;;11.37;4.93;;;;;;;;;;1787558;78;21549;-46
2022/12/20 11:20:25;;;;;;;7.37;3.23;;;;;;;;;;1770053;79;21916;-46
2022/12/20 11:23:27;;;;;;;7.07;2.70;;;;;;;;;;1811455;77;20989;-46
2022/12/20 11:26:08;;;;;;;5.10;2.50;;;;;;;;;;1804993;77;20981;-46
2022/12/20 11:29:06;;;;;;;8.67;3.40;;;;;;;;;;1777628;79;21021;-46
2022/12/20 11:31:37;;;;;;;12.43;7.07;;;;;;;;;;1802789;77;21332;-46
2022/12/20 11:34:27;;;;;;;9.20;4.03;;;;;;;;;;1771059;79;21342;-45
2022/12/20 11:37:00;;;;;;;13.87;7.40;;;;;;;;;;1801304;77;21083;-47
2022/12/20 11:39:42;;;;;;;23.17;13.20;;;;;;;;;;1798923;77;21111;-46
2022/12/20 11:42:29;;;;;;;25.70;10.67;;;;;;;;;;1767301;79;21130;-45
2022/12/20 11:45:12;;;;;;;9.77;3.90;;;;;;;;;;1806948;77;21048;-47
2022/12/20 11:47:45;;;;;;;18.17;6.30;;;;;;;;;;1724533;79;21828;-48
2022/12/20 11:50:47;;;;;;;8.30;3.37;;;;;;;;;;1804136;77;21103;-47
2022/12/20 11:53:25;;;;;;;8.83;2.90;;;;;;;;;;1774582;79;21123;-46
2022/12/20 11:55:53;;;;;;;8.30;3.77;;;;;;;;;;1803867;77;21100;-46
2022/12/20 11:58:31;;;;;;;7.97;2.57;;;;;;;;;;1761403;80;21983;-46
2022/12/20 12:01:00;;;;;;;16.20;3.57;;;;;;;;;;1768878;80;21295;-46
2022/12/20 12:03:33;;;;;;;8.33;3.33;;;;;;;;;;1773831;80;21042;-46
2022/12/20 12:06:03;;;;;;;13.37;5.83;;;;;;;;;;1770660;79;21072;-46
2022/12/20 12:08:32;;;;;;;12.77;5.07;;;;;;;;;;1770754;79;21054;-46
2022/12/20 12:11:05;;;;;;;23.57;11.27;;;;;;;;;;1766397;80;21050;-45
2022/12/20 12:13:35;;;;;;;9.07;4.97;;;;;;;;;;1772330;79;22540;-46
2022/12/20 12:16:22;;;;;;;13.50;6.43;;;;;;;;;;1774658;79;21052;-46
2022/12/20 12:18:48;;;;;;;9.00;3.83;;;;;;;;;;1783991;79;21085;-46
2022/12/20 12:21:36;;;;;;;12.40;3.93;;;;;;;;;;1781904;78;21519;-50
2022/12/20 12:24:09;;;;;;;8.47;3.43;;;;;;;;;;1760628;79;21191;-46
2022/12/20 12:26:38;;;;;;;10.83;3.87;;;;;;;;;;1785781;78;21841;-46
2022/12/20 12:29:09;;;;;;;7.23;3.00;;;;;;;;;;1784238;78;21037;-46
2022/12/20 12:31:50;;;;;;;17.50;6.60;;;;;;;;;;1781844;78;21044;-46
2022/12/20 12:34:52;;;;;;;11.63;5.07;;;;;;;;;;1782027;78;21092;-45
2022/12/20 12:37:31;;;;;;;7.57;3.83;;;;;;;;;;1783656;78;21031;-46
2022/12/20 12:40:27;;;;;;;15.53;4.60;;;;;;;;;;1789203;78;21909;-46
2022/12/20 12:42:57;;;;;;;6.30;2.50;;;;;;;;;;1783892;78;21045;-47
2022/12/20 12:45:42;;;;;;;12.07;4.47;;;;;;;;;;1782324;79;21533;-47
2022/12/20 12:48:33;;;;;;;9.33;4.65;;;;;;;;;;1786657;78;21057;-47
2022/12/20 12:51:01;;;;;;;6.80;3.23;;;;;;;;;;1719525;81;21102;-46
2022/12/20 12:53:44;;;;;;;9.43;4.60;;;;;;;;;;1724272;81;21752;-47
2022/12/20 12:56:29;;;;;;;6.67;2.77;;;;;;;;;;1751589;79;21112;-47
2022/12/20 12:59:09;;;;;;;;;;;;;;;;;;1789524;78;21096;-47
2022/12/20 13:02:14;;;;;;;4.93;2.00;;;;;;;;;;1782411;79;20774;-47
2022/12/20 13:05:08;;;;;;;7.80;2.70;;;;;;;;;;1785638;78;21072;-46
2022/12/20 13:07:38;;;;;;;8.70;2.80;;;;;;;;;;1782718;78;21748;-45
2022/12/20 13:10:12;;;;;;;3.63;1.60;;;;;;;;;;1785268;78;21345;-45
2022/12/20 13:12:42;;;;;;;6.60;3.53;;;;;;;;;;1780154;79;21025;-46
2022/12/20 13:15:24;;;;;;;6.10;2.50;;;;;;;;;;1789581;78;21025;-46
2022/12/20 13:18:00;;;;;;;7.30;2.90;;;;;;;;;;1785525;78;21037;-46
2022/12/20 13:20:33;;;;;;;10.87;2.70;;;;;;;;;;1773740;78;21831;-46
2022/12/20 13:23:06;;;;;;;6.12;2.37;;;;;;;;;;1782710;78;21032;-45
2022/12/20 13:25:36;;;;;;;4.00;1.87;;;;;;;;;;1774684;78;21051;-46
2022/12/20 13:28:24;;;;;;;5.43;1.80;;;;;;;;;;1784843;78;21496;-46
2022/12/20 13:31:03;;;;;;;5.53;2.17;;;;;;;;;;1784380;78;21073;-46
2022/12/20 13:33:43;;;;;;;9.13;5.80;;;;;;;;;;1780951;78;21777;-46
2022/12/20 13:36:13;;;;;;;9.00;4.10;;;;;;;;;;1786629;78;21041;-46
2022/12/20 13:38:46;;;;;;;6.90;3.73;;;;;;;;;;1782626;78;21076;-46
2022/12/20 13:41:22;;;;;;;5.87;2.97;;;;;;;;;;1782960;78;21079;-46
2022/12/20 13:43:50;;;;;;;10.13;3.63;;;;;;;;;;1787969;78;20978;-46
2022/12/20 13:46:53;;;;;;;10.00;3.13;;;;;;;;;;1785976;78;22459;-47
2022/12/20 13:49:30;;;;;;;11.80;3.90;;;;;;;;;;1714176;81;21418;-46
2022/12/20 13:52:12;;;;;;;11.97;5.27;;;;;;;;;;1781656;79;20989;-46
2022/12/20 13:54:40;;;;;;;13.67;7.23;;;;;;;;;;1758111;79;21513;-46
2022/12/20 13:57:06;;;;;;;12.00;6.30;;;;;;;;;;1786008;78;20966;-46
2022/12/20 13:59:32;;;;;;;12.97;6.20;;;;;;;;;;1788031;79;22467;-46
2022/12/20 14:02:00;;;;;;;12.47;5.70;;;;;;;;;;1784243;79;20969;-46
2022/12/20 16:42:13;;;;;;;10.33;6.10;;;;;;;-0.55;100.00;100528.61;1850391;75;26560;-43
2022/12/20 16:44:43;;;;;;;13.47;6.07;;;;;;;-0.48;100.00;100547.62;1823222;77;21336;-45
2022/12/20 16:47:10;;;;;;;9.97;5.63;;;;;;;-0.42;100.00;100533.11;1816184;77;21662;-46
2022/12/20 16:49:36;;;;;;;9.17;4.83;;;;;;;-0.36;100.00;100526.13;1779436;78;21531;-45
2022/12/20 16:52:04;;;;;;;8.07;4.50;;;;;;;-0.31;100.00;100520.41;1783596;78;20902;-46
2022/12/20 16:54:30;;;;;;;8.07;4.43;;;;;;;-0.23;100.00;100510.34;1780473;78;21462;-46
2022/12/20 16:56:57;;;;;;;13.47;4.20;;;;;;;-0.15;100.00;100502.02;1763991;78;20961;-45
2022/12/20 16:59:24;;;;;;;8.47;4.73;;;;;;;-0.12;100.00;100503.38;1779479;78;21660;-46
2022/12/20 17:01:55;;;;;;;10.80;4.43;;;;;;;-0.09;100.00;100500.76;1781477;78;20838;-45
2022/12/20 17:04:21;;;;;;;9.50;4.50;;;;;;;-0.07;100.00;100488.39;1776478;78;21454;-45
2022/12/20 17:06:50;;;;;;;12.13;5.07;;;;;;;-0.05;100.00;100484.44;1754873;80;21096;-45
2022/12/20 17:09:18;;;;;;;7.17;3.90;;;;;;;-0.04;100.00;100478.28;1757460;80;21101;-45
2022/12/20 17:11:45;;;;;;;7.57;4.07;;;;;;;-0.03;100.00;100470.35;1763254;79;21078;-46
2022/12/20 17:14:12;;;;;;;7.40;3.70;;;;;;;-0.03;100.00;100473.00;1761690;79;20943;-45
2022/12/20 17:16:39;;;;;;;13.53;4.63;;;;;;;-0.02;100.00;100468.16;1769720;79;20900;-45
2022/12/20 17:19:06;;;;;;;8.03;4.20;;;;;;;-0.01;100.00;100465.96;1764471;79;20925;-45
2022/12/20 17:21:47;;;;;;;8.90;4.17;;;;;;;0.00;100.00;100459.77;1764769;79;20990;-46
2022/12/20 17:24:20;;;;;;;7.90;3.87;;;;;;;0.01;100.00;100455.36;1759412;79;21441;-45
2022/12/20 17:26:47;;;;;;;11.03;4.63;;;;;;;0.04;100.00;100458.03;1766649;79;21064;-46
2022/12/20 17:29:14;;;;;;;7.33;3.40;;;;;;;0.06;100.00;100451.42;1763928;79;21034;-45
2022/12/20 17:31:43;;;;;;;7.83;3.60;;;;;;;0.07;100.00;100446.14;1745860;79;21269;-45
2022/12/20 17:34:21;;;;;;;9.50;4.83;;;;;;;0.09;100.00;100448.34;1743317;81;21028;-46
2022/12/20 17:36:50;;;;;;;12.80;5.90;;;;;;;0.11;100.00;100446.59;1737023;81;21113;-46
2022/12/20 17:39:16;;;;;;;12.27;6.47;;;;;;;0.14;100.00;100447.05;1741785;80;21004;-46
2022/12/20 17:41:43;;;;;;;14.43;7.37;;;;;;;0.15;100.00;100436.91;1734444;81;21086;-45
2022/12/20 17:44:23;;;;;;;13.23;7.60;;;;;;;0.15;100.00;100432.94;1743299;80;21044;-46
2022/12/20 17:46:49;;;;;;;10.60;6.50;;;;;;;0.17;100.00;100436.48;1738059;80;21049;-45
2022/12/20 17:49:16;;;;;;;13.97;6.77;;;;;;;0.20;100.00;100429.42;1745422;80;21514;-46
2022/12/20 17:51:42;;;;;;;10.30;5.80;;;;;;;0.23;100.00;100437.83;1745744;80;21072;-46
2022/12/20 17:54:22;;;;;;;11.70;5.70;;;;;;;0.25;100.00;100434.76;1740583;81;21049;-47
2022/12/20 17:56:49;;;;;;;8.53;5.90;;;;;;;0.27;100.00;100436.51;1742767;80;21080;-46
2022/12/20 17:59:15;;;;;;;11.73;6.63;;;;;;;0.30;100.00;100425.05;1734597;81;21604;-45
2022/12/20 18:01:42;;;;;;;9.83;5.47;;;;;;;0.32;100.00;100418.01;1745713;80;21756;-46
2022/12/20 18:04:12;;;;;;;9.70;4.50;;;;;;;0.32;100.00;100409.63;1740501;81;21049;-45
2022/12/20 18:06:41;;;;;;;8.00;4.27;;;;;;;0.34;100.00;100412.28;1738166;80;21121;-45
2022/12/20 18:09:16;;;;;;;6.73;3.53;;;;;;;0.36;100.00;100406.53;1738116;80;21033;-46
2022/12/20 18:11:43;;;;;;;10.83;4.50;;;;;;;0.36;100.00;100415.80;1736850;81;21037;-46
2022/12/20 18:14:10;;;;;;;11.33;5.53;;;;;;;0.35;100.00;100409.62;1742457;81;22380;-46
2022/12/20 18:16:40;;;;;;;13.17;7.50;;;;;;;0.37;100.00;100417.57;1740195;81;21541;-48
2022/12/20 18:19:05;;;;;;;11.67;7.80;;;;;;;0.40;100.00;100407.44;1739060;81;22142;-46
2022/12/20 18:21:32;;;;;;;10.53;8.60;;;;;;;0.40;100.00;100404.79;1757295;80;22338;-46
2022/12/20 18:23:58;;;;;;;11.03;6.43;;;;;;;0.38;100.00;100399.05;1727570;81;21096;-45
2022/12/20 18:26:27;;;;;;;10.73;4.93;;;;;;;0.39;100.00;100397.28;1732150;81;21958;-47
2022/12/20 18:28:56;;;;;;;11.23;5.63;;;;;;;0.38;100.00;100398.16;1762036;80;21504;-45
2022/12/20 18:31:24;;;;;;;9.13;5.17;;;;;;;0.38;100.00;100400.80;1727238;81;21683;-48
2022/12/20 18:33:51;;;;;;;10.87;5.00;;;;;;;0.39;100.00;100388.02;1733823;81;21089;-45